Time;durP1;ratioP1;P1;durP2;ratioP2;P2;SDS_P1;SDS_P2;PMS_P1;PMS_P2;Temp;Humidity;BMP_temperature;BMP_pressure;BME280_temperature;BME280_humidity;BME280_pressure;Samples;Min_cycle;Max_cycle;Signal;HPM_P1;HPM_P2
2022/05/31 00:01:14;;;;;;;9.50;5.50;;;;;;;14.31;86.49;99516.08;108271;1286;22465;-63
2022/05/31 00:03:41;;;;;;;12.90;6.60;;;;;;;14.27;86.71;99515.30;108195;1283;313452;-63
2022/05/31 00:06:08;;;;;;;9.70;6.40;;;;;;;14.25;87.15;99508.78;108486;1284;22783;-63
2022/05/31 00:08:39;;;;;;;10.00;6.00;;;;;;;14.26;87.74;99511.79;108291;1284;137564;-63
2022/05/31 00:11:06;;;;;;;7.10;5.60;;;;;;;14.25;87.71;99514.59;108480;1284;22665;-64
2022/05/31 00:13:33;;;;;;;10.70;5.60;;;;;;;14.20;87.95;99512.24;108379;1284;22447;-63
2022/05/31 00:16:00;;;;;;;8.20;6.20;;;;;;;14.18;88.09;99515.92;108361;1284;137989;-63
2022/05/31 00:18:26;;;;;;;9.40;6.00;;;;;;;14.17;88.23;99514.77;108500;1284;22649;-63
2022/05/31 00:20:53;;;;;;;7.50;5.20;;;;;;;14.17;88.28;99516.59;108162;1286;137860;-64
2022/05/31 00:23:20;;;;;;;6.70;4.90;;;;;;;14.13;88.19;99518.04;108463;1283;22455;-63
2022/05/31 00:25:47;;;;;;;6.80;4.80;;;;;;;14.10;87.98;99519.54;108476;1284;22397;-63
2022/05/31 00:28:14;;;;;;;7.20;5.50;;;;;;;14.06;88.08;99526.28;108255;1284;137499;-63
2022/05/31 00:30:40;;;;;;;7.00;4.90;;;;;;;14.03;87.99;99530.40;108533;1283;22512;-63
2022/05/31 00:33:07;;;;;;;5.90;4.90;;;;;;;14.00;88.07;99529.39;108214;1284;138068;-63
2022/05/31 00:35:38;;;;;;;6.60;5.40;;;;;;;13.98;88.17;99531.55;108237;1284;22408;-64
2022/05/31 00:38:05;;;;;;;6.90;5.30;;;;;;;13.98;88.47;99527.77;108344;1283;24582;-64
2022/05/31 00:40:32;;;;;;;9.60;6.50;;;;;;;13.99;88.56;99523.63;108200;1284;139330;-64
2022/05/31 00:43:03;;;;;;;8.00;5.70;;;;;;;14.01;88.69;99517.70;108458;1284;22470;-64
2022/05/31 00:45:39;;;;;;;9.80;6.20;;;;;;;14.00;88.56;99519.63;108297;1284;139475;-64
2022/05/31 00:48:09;;;;;;;8.30;6.00;;;;;;;13.97;88.55;99516.97;108167;1284;23721;-64
2022/05/31 00:50:40;;;;;;;9.10;5.20;;;;;;;13.93;88.44;99516.27;108194;1284;137841;-63
2022/05/31 00:53:18;;;;;;;10.10;6.30;;;;;;;13.90;88.51;99525.52;108457;1284;22430;-63
2022/05/31 00:55:47;;;;;;;7.10;5.30;;;;;;;13.89;88.58;99534.02;108411;1284;22251;-64
2022/05/31 00:58:17;;;;;;;8.90;5.90;;;;;;;13.88;88.63;99539.01;108170;1284;138249;-63
2022/05/31 01:00:44;;;;;;;10.20;6.80;;;;;;;13.89;88.62;99541.03;108417;1284;23155;-63
2022/05/31 01:03:14;;;;;;;8.60;5.90;;;;;;;13.89;88.48;99534.89;108257;1284;138998;-64
2022/05/31 01:05:41;;;;;;;7.50;5.60;;;;;;;13.88;88.43;99533.64;108425;1283;23232;-63
2022/05/31 01:08:08;;;;;;;9.20;5.60;;;;;;;13.85;88.47;99532.74;108418;1284;22312;-63
2022/05/31 01:10:42;;;;;;;8.30;5.50;;;;;;;13.82;88.32;99540.14;108352;1284;23104;-63
2022/05/31 01:13:28;;;;;;;8.20;6.20;;;;;;;13.79;88.33;99543.43;108159;1286;22519;-63
2022/05/31 01:16:15;;;;;;;6.70;5.80;;;;;;;13.74;88.20;99540.58;108174;1284;138698;-63
2022/05/31 01:19:00;;;;;;;7.00;5.40;;;;;;;13.70;88.29;99541.81;108437;1284;23338;-63
2022/05/31 01:21:51;;;;;;;9.80;5.90;;;;;;;13.69;88.37;99547.95;108323;1284;138143;-63
2022/05/31 01:24:25;;;;;;;9.10;5.90;;;;;;;13.68;88.37;99552.02;108195;1286;22418;-63
2022/05/31 01:26:55;;;;;;;9.90;5.80;;;;;;;13.69;88.75;99554.64;108106;1284;139513;-63
2022/05/31 01:29:29;;;;;;;8.10;5.70;;;;;;;13.73;89.23;99550.72;108175;1284;22461;-63
2022/05/31 01:31:56;;;;;;;7.90;5.90;;;;;;;13.79;89.36;99547.53;108321;1284;22467;-63
2022/05/31 01:34:46;;;;;;;10.50;7.00;;;;;;;13.85;89.41;99550.31;108204;1284;138112;-63
2022/05/31 01:37:13;;;;;;;7.10;5.90;;;;;;;13.89;89.49;99547.39;108316;1285;22461;-63
2022/05/31 01:39:55;;;;;;;9.30;6.00;;;;;;;13.94;89.78;99546.45;108301;1284;137831;-63
2022/05/31 01:42:37;;;;;;;6.50;5.20;;;;;;;13.98;89.80;99545.23;108106;1285;22708;-63
2022/05/31 01:45:14;;;;;;;9.30;5.50;;;;;;;14.02;89.78;99549.98;108311;1284;138618;-63
2022/05/31 01:47:41;;;;;;;7.20;5.10;;;;;;;14.04;89.94;99551.01;108240;1287;22473;-63
2022/05/31 01:50:14;;;;;;;9.20;5.70;;;;;;;14.06;89.81;99549.19;108198;1284;22428;-63
2022/05/31 01:52:40;;;;;;;8.30;6.30;;;;;;;14.09;89.92;99554.95;108210;1287;22467;-63
2022/05/31 01:55:08;;;;;;;7.50;5.60;;;;;;;14.10;89.86;99552.96;108285;1286;22542;-63
2022/05/31 01:57:36;;;;;;;8.70;5.00;;;;;;;14.13;89.83;99553.55;108930;1277;139906;-63
2022/05/31 02:00:06;;;;;;;9.60;5.30;;;;;;;14.16;89.50;99554.68;108956;1277;22441;-63
2022/05/31 02:02:39;;;;;;;6.10;5.40;;;;;;;14.18;89.36;99554.02;108927;1277;138032;-63
2022/05/31 02:05:09;;;;;;;10.30;5.60;;;;;;;14.19;89.11;99547.82;109160;1276;22484;-52
2022/05/31 02:07:36;;;;;;;10.00;6.70;;;;;;;14.20;89.05;99548.14;108975;1277;22454;-63
2022/05/31 02:10:04;;;;;;;6.90;5.60;;;;;;;14.26;88.90;99551.35;108984;1277;139684;-63
2022/05/31 02:12:38;;;;;;;9.80;6.20;;;;;;;14.30;88.56;99552.25;109066;1278;22408;-63
2022/05/31 02:15:31;;;;;;;11.50;6.90;;;;;;;14.34;88.42;99548.18;108814;1277;138678;-63
2022/05/31 02:18:18;;;;;;;12.90;6.80;;;;;;;14.38;88.23;99546.71;108883;1278;23160;-64
2022/05/31 02:20:53;;;;;;;10.20;6.90;;;;;;;14.46;88.17;99544.98;109027;1277;139216;-63
2022/05/31 02:23:20;;;;;;;11.60;6.60;;;;;;;14.51;88.01;99550.05;109041;1278;22486;-64
2022/05/31 02:25:47;;;;;;;13.30;7.40;;;;;;;14.57;87.74;99550.61;109124;1277;22428;-64
2022/05/31 02:28:14;;;;;;;12.10;7.60;;;;;;;14.62;87.61;99549.16;108908;1278;137925;-64
2022/05/31 02:30:41;;;;;;;12.20;8.10;;;;;;;14.66;87.54;99550.89;109153;1277;22528;-64
2022/05/31 02:33:08;;;;;;;11.10;7.10;;;;;;;14.71;87.26;99552.39;109057;1277;138905;-64
2022/05/31 02:35:34;;;;;;;10.80;7.50;;;;;;;14.76;87.21;99555.09;109003;1277;22436;-64
2022/05/31 02:38:01;;;;;;;13.70;8.30;;;;;;;14.80;87.14;99560.84;108988;1277;22456;-64
2022/05/31 02:40:28;;;;;;;12.90;8.30;;;;;;;14.83;87.02;99562.36;108933;1278;138383;-64
2022/05/31 02:42:55;;;;;;;11.10;7.40;;;;;;;14.86;87.01;99557.21;108996;1277;22465;-64
2022/05/31 02:45:22;;;;;;;13.30;8.20;;;;;;;14.93;87.09;99553.27;108921;1278;139238;-64
2022/05/31 02:47:49;;;;;;;10.20;7.40;;;;;;;14.98;87.17;99555.07;109089;1277;22561;-64
2022/05/31 02:50:18;;;;;;;7.70;6.90;;;;;;;15.02;87.12;99557.32;108895;1277;139915;-64
2022/05/31 02:52:45;;;;;;;9.00;6.50;;;;;;;15.06;87.16;99554.23;108981;1277;22458;-64
2022/05/31 02:55:12;;;;;;;8.80;6.80;;;;;;;15.11;87.07;99554.30;109058;1278;22356;-64
2022/05/31 02:58:02;;;;;;;9.40;6.80;;;;;;;15.17;87.01;99557.85;108684;1277;138918;-64
2022/05/31 03:00:47;;;;;;;8.10;6.80;;;;;;;15.22;86.93;99558.37;109153;1278;22548;-64
2022/05/31 03:03:33;;;;;;;11.30;6.70;;;;;;;15.26;86.83;99562.02;109032;1278;138716;-64
2022/05/31 03:06:19;;;;;;;8.80;6.50;;;;;;;15.30;86.73;99568.30;109212;1277;22461;-64
2022/05/31 03:08:58;;;;;;;11.20;6.00;;;;;;;15.33;86.66;99569.41;108861;1277;138958;-64
2022/05/31 03:11:48;;;;;;;9.40;6.50;;;;;;;15.37;86.61;99572.41;109018;1277;22555;-64
2022/05/31 03:14:29;;;;;;;7.80;6.50;;;;;;;15.41;86.63;99577.42;108769;1278;140190;-63
2022/05/31 03:17:01;;;;;;;10.10;7.00;;;;;;;15.45;86.55;99581.49;108976;1277;22939;-63
2022/05/31 03:19:31;;;;;;;10.10;5.90;;;;;;;15.49;86.49;99581.84;108987;1277;23297;-63
2022/05/31 03:22:01;;;;;;;8.10;6.10;;;;;;;15.53;86.34;99582.53;108880;1277;139886;-63
2022/05/31 03:24:31;;;;;;;11.60;6.70;;;;;;;15.58;86.04;99583.55;109037;1277;22465;-63
2022/05/31 03:26:58;;;;;;;7.40;6.00;;;;;;;15.63;85.97;99588.39;108915;1277;139528;-63
2022/05/31 03:29:25;;;;;;;8.20;5.90;;;;;;;15.66;85.80;99587.16;109014;1277;22582;-64
2022/05/31 03:31:52;;;;;;;10.40;6.30;;;;;;;15.69;85.69;99587.14;109005;1277;22427;-63
2022/05/31 03:34:18;;;;;;;8.00;6.20;;;;;;;15.72;85.41;99588.20;108950;1277;138235;-64
2022/05/31 03:36:45;;;;;;;9.00;6.60;;;;;;;15.74;85.37;99590.31;109017;1277;22399;-64
2022/05/31 03:39:13;;;;;;;7.00;6.30;;;;;;;15.73;85.41;99593.51;108928;1277;139515;-63
2022/05/31 03:41:40;;;;;;;7.70;6.70;;;;;;;15.77;85.26;99599.35;109167;1277;22602;-64
2022/05/31 03:44:09;;;;;;;8.50;6.60;;;;;;;15.78;85.25;99596.42;109186;1277;22463;-64
2022/05/31 03:46:38;;;;;;;11.20;6.60;;;;;;;15.80;85.31;99600.52;109146;1276;139126;-63
2022/05/31 03:49:08;;;;;;;7.70;6.40;;;;;;;15.81;85.33;99598.88;109151;1277;22609;-63
2022/05/31 03:51:44;;;;;;;10.40;7.20;;;;;;;15.84;85.31;99601.00;108841;1277;137934;-64
2022/05/31 03:54:15;;;;;;;7.50;6.80;;;;;;;15.86;85.26;99604.60;108913;1278;22399;-64
2022/05/31 03:57:05;;;;;;;7.10;6.30;;;;;;;15.86;85.16;99605.31;108942;1277;139139;-64
2022/05/31 03:59:36;;;;;;;16.00;6.50;;;;;;;15.87;85.16;99608.64;109016;1277;22425;-63
2022/05/31 04:02:04;;;;;;;9.30;6.40;;;;;;;15.88;85.15;99609.57;108997;1277;23242;-64
2022/05/31 04:04:31;;;;;;;9.60;7.50;;;;;;;15.89;85.11;99610.70;108894;1277;137828;-64
2022/05/31 04:06:58;;;;;;;10.80;7.00;;;;;;;15.90;85.06;99610.75;108942;1277;22549;-64
2022/05/31 04:09:25;;;;;;;9.40;7.20;;;;;;;15.90;85.13;99612.13;108922;1277;139334;-64
2022/05/31 04:11:56;;;;;;;11.10;7.30;;;;;;;15.89;84.95;99615.65;109042;1277;23191;-64
2022/05/31 04:14:42;;;;;;;8.50;6.80;;;;;;;15.88;84.69;99620.49;109019;1277;138418;-64
2022/05/31 04:17:09;;;;;;;8.00;6.90;;;;;;;15.87;84.58;99624.42;109032;1277;23604;-64
2022/05/31 04:19:36;;;;;;;9.70;6.60;;;;;;;15.86;84.44;99625.39;109135;1277;22424;-64
2022/05/31 04:22:03;;;;;;;8.10;6.60;;;;;;;15.85;84.39;99627.37;108971;1277;139994;-64
2022/05/31 04:24:30;;;;;;;13.50;7.40;;;;;;;15.84;84.31;99628.30;109014;1277;22461;-64
2022/05/31 04:27:16;;;;;;;11.30;8.50;;;;;;;15.83;84.31;99626.73;109065;1277;138553;-64
2022/05/31 04:30:02;;;;;;;9.00;6.70;;;;;;;15.83;84.29;99625.52;109091;1277;22460;-64
2022/05/31 04:32:51;;;;;;;9.10;6.80;;;;;;;15.82;84.25;99629.64;108802;1277;139378;-64
2022/05/31 04:35:26;;;;;;;7.50;6.70;;;;;;;15.83;84.31;99627.77;109028;1276;22452;-64
2022/05/31 04:37:53;;;;;;;8.90;7.10;;;;;;;15.83;84.21;99632.11;109203;1277;22411;-64
2022/05/31 04:40:43;;;;;;;9.70;7.30;;;;;;;15.81;84.19;99631.35;108898;1277;22497;-64
2022/05/31 04:43:32;;;;;;;10.00;7.60;;;;;;;15.82;84.11;99636.79;109063;1277;22464;-64
2022/05/31 04:46:15;;;;;;;8.40;7.10;;;;;;;15.78;84.14;99645.66;107356;1277;139457;-64
2022/05/31 04:49:11;;;;;;;8.20;7.40;;;;;;;15.77;84.18;99651.65;109095;1277;22402;-64
2022/05/31 04:51:38;;;;;;;9.60;7.50;;;;;;;15.75;84.12;99658.54;109074;1277;138635;-64
2022/05/31 04:54:06;;;;;;;8.10;7.30;;;;;;;15.73;84.08;99663.57;109033;1278;23685;-64
2022/05/31 04:56:36;;;;;;;11.20;7.70;;;;;;;15.71;84.06;99671.34;109070;1277;138918;-64
2022/05/31 04:59:05;;;;;;;9.70;7.70;;;;;;;15.72;84.11;99669.70;108953;1277;22455;-62
2022/05/31 05:01:33;;;;;;;11.50;7.60;;;;;;;15.71;83.92;99673.16;108836;1277;22451;-64
2022/05/31 05:04:03;;;;;;;9.00;7.50;;;;;;;15.68;83.90;99671.48;108688;1277;138516;-63
2022/05/31 05:06:36;;;;;;;11.90;7.50;;;;;;;15.66;84.18;99674.89;108940;1277;22579;-63
2022/05/31 05:09:04;;;;;;;9.10;7.60;;;;;;;15.66;84.23;99675.05;108859;1277;139328;-63
2022/05/31 05:11:32;;;;;;;9.60;7.20;;;;;;;15.65;84.16;99671.38;109044;1277;22592;-64
2022/05/31 05:14:11;;;;;;;8.40;7.50;;;;;;;15.63;84.10;99672.49;109110;1277;22401;-63
2022/05/31 05:16:38;;;;;;;10.00;8.00;;;;;;;15.60;84.02;99674.21;109077;1277;138704;-63
2022/05/31 05:19:13;;;;;;;11.10;8.30;;;;;;;15.58;83.91;99675.58;109090;1277;22433;-64
2022/05/31 05:21:40;;;;;;;11.70;8.20;;;;;;;15.56;83.93;99675.54;108899;1277;138228;-63
2022/05/31 05:24:07;;;;;;;10.60;7.90;;;;;;;15.55;83.90;99680.20;109125;1277;22514;-63
2022/05/31 05:26:46;;;;;;;10.50;8.00;;;;;;;15.57;83.98;99685.95;108861;1277;138625;-63
2022/05/31 05:32:35;;;;;;;8.60;7.70;;;;;;;15.60;83.45;99684.48;108298;1284;138436;-63
2022/05/31 05:35:11;;;;;;;10.80;8.10;;;;;;;15.60;83.31;99685.64;108327;1284;23635;-64
2022/05/31 05:37:38;;;;;;;10.80;7.80;;;;;;;15.61;83.42;99683.93;108352;1283;22479;-63
2022/05/31 05:40:07;;;;;;;9.30;8.20;;;;;;;15.62;83.32;99676.30;108253;1283;139290;-63
2022/05/31 05:42:40;;;;;;;8.70;7.90;;;;;;;15.64;83.39;99677.43;108144;1284;23375;-63
2022/05/31 05:45:11;;;;;;;12.50;8.20;;;;;;;15.67;83.38;99678.46;108118;1283;139400;-63
2022/05/31 05:47:40;;;;;;;11.00;8.60;;;;;;;15.70;83.16;99683.39;108128;1283;22469;-63
2022/05/31 05:50:07;;;;;;;11.20;8.30;;;;;;;15.71;82.92;99685.95;108082;1283;23097;-63
2022/05/31 05:53:07;;;;;;;8.30;7.40;;;;;;;15.75;82.69;99689.75;108004;1284;22492;-63
2022/05/31 05:56:06;;;;;;;10.60;7.70;;;;;;;15.78;82.77;99696.43;108329;1283;22472;-64
2022/05/31 05:58:51;;;;;;;9.50;8.30;;;;;;;15.82;82.69;99699.32;108176;1283;22776;-63
2022/05/31 06:01:29;;;;;;;10.00;8.20;;;;;;;15.86;82.40;99699.21;108452;1283;22438;-64
2022/05/31 06:04:35;;;;;;;13.10;8.20;;;;;;;15.88;82.15;99695.84;108179;1284;139120;-63
2022/05/31 06:07:06;;;;;;;11.90;7.90;;;;;;;15.89;81.97;99696.27;108652;1277;23565;-63
2022/05/31 06:09:33;;;;;;;11.20;8.50;;;;;;;15.91;81.84;99699.66;108882;1277;139218;-64
2022/05/31 06:12:03;;;;;;;8.70;7.80;;;;;;;15.94;81.70;99707.79;109028;1277;23254;-64
2022/05/31 06:14:33;;;;;;;11.50;8.90;;;;;;;15.94;81.46;99713.88;108927;1277;138505;-64
2022/05/31 06:17:01;;;;;;;10.80;9.50;;;;;;;15.96;81.42;99713.70;109132;1277;23102;-63
2022/05/31 06:19:32;;;;;;;11.30;8.10;;;;;;;15.97;81.34;99714.52;108933;1277;23803;-63
2022/05/31 06:21:59;;;;;;;10.30;7.70;;;;;;;15.98;81.30;99719.80;108928;1277;141515;-64
2022/05/31 06:24:33;;;;;;;18.60;8.70;;;;;;;15.98;80.98;99724.73;108975;1277;22435;-63
2022/05/31 06:27:17;;;;;;;11.10;8.10;;;;;;;15.96;80.86;99724.30;105164;1278;138618;-62
2022/05/31 06:29:44;;;;;;;10.40;8.20;;;;;;;15.96;80.85;99727.16;104481;1278;22746;-63
2022/05/31 06:32:11;;;;;;;10.60;8.70;;;;;;;15.95;80.94;99737.84;104773;1277;24306;-65
2022/05/31 06:34:39;;;;;;;10.60;8.40;;;;;;;15.93;80.90;99745.98;108971;1277;138479;-63
2022/05/31 06:37:28;;;;;;;15.40;8.00;;;;;;;15.93;80.94;99749.17;109146;1277;23083;-64
2022/05/31 06:39:56;;;;;;;11.10;8.50;;;;;;;15.93;80.91;99749.11;108896;1277;138187;-64
2022/05/31 06:42:49;;;;;;;11.00;8.00;;;;;;;15.94;80.89;99750.71;108849;1277;22412;-64
2022/05/31 06:45:35;;;;;;;11.70;8.10;;;;;;;15.95;80.93;99748.45;108969;1277;138422;-64
2022/05/31 06:48:20;;;;;;;9.00;7.80;;;;;;;15.96;80.83;99753.61;109104;1277;22484;-64
2022/05/31 06:51:08;;;;;;;9.10;7.60;;;;;;;15.96;80.47;99753.66;109003;1277;138137;-64
2022/05/31 06:56:49;;;;;;;11.10;7.30;;;;;;;15.96;80.46;99758.39;109039;1277;140030;-64
2022/05/31 06:59:39;;;;;;;10.40;7.80;;;;;;;15.96;80.66;99750.86;109108;1277;22506;-64
2022/05/31 07:02:06;;;;;;;8.60;7.50;;;;;;;15.98;80.84;99756.51;109061;1277;22255;-64
2022/05/31 07:04:36;;;;;;;9.20;7.40;;;;;;;16.00;80.70;99756.66;109144;1277;138888;-64
2022/05/31 07:07:04;;;;;;;11.90;7.70;;;;;;;16.03;80.78;99763.43;109042;1277;22576;-64
2022/05/31 07:10:03;;;;;;;18.80;7.50;;;;;;;16.05;80.65;99762.02;108814;1276;138334;-64
2022/05/31 07:12:56;;;;;;;8.80;7.60;;;;;;;16.07;80.49;99759.27;109162;1277;23201;-64
2022/05/31 07:15:41;;;;;;;11.10;7.10;;;;;;;16.10;80.12;99758.42;109146;1276;139154;-64
2022/05/31 07:18:46;;;;;;;16.40;7.50;;;;;;;16.10;79.91;99765.85;109161;1275;23101;-64
2022/05/31 07:21:13;;;;;;;11.60;7.30;;;;;;;16.11;79.72;99772.45;109071;1276;138407;-64
2022/05/31 07:23:40;;;;;;;8.30;7.30;;;;;;;16.13;79.73;99776.17;109119;1277;22467;-64
2022/05/31 07:26:08;;;;;;;7.60;6.90;;;;;;;16.16;79.38;99782.84;109143;1276;22465;-64
2022/05/31 07:28:56;;;;;;;;;;;;;;;16.18;78.73;99787.04;109098;1277;23313;-64
2022/05/31 07:31:23;;;;;;;6.50;5.40;;;;;;;16.18;77.65;99792.43;109263;1277;22417;-64
2022/05/31 07:33:59;;;;;;;5.30;4.80;;;;;;;16.17;76.37;99792.55;109158;1274;138143;-64
2022/05/31 07:36:26;;;;;;;6.90;5.10;;;;;;;16.16;75.62;99794.70;109434;1273;22410;-64
2022/05/31 07:39:18;;;;;;;10.20;5.90;;;;;;;16.17;75.36;99802.88;109183;1274;139485;-64
2022/05/31 07:41:46;;;;;;;6.90;5.20;;;;;;;16.18;74.83;99807.49;109304;1274;22239;-64
2022/05/31 07:44:17;;;;;;;10.30;6.30;;;;;;;16.20;74.88;99811.71;109234;1274;22534;-64
2022/05/31 07:46:44;;;;;;;7.60;5.20;;;;;;;16.21;74.71;99807.54;109211;1274;23766;-64
2022/05/31 07:49:12;;;;;;;8.70;5.90;;;;;;;16.27;74.90;99812.55;109266;1274;22469;-64
2022/05/31 07:51:41;;;;;;;7.90;6.00;;;;;;;16.31;74.74;99805.19;109294;1274;138921;-64
2022/05/31 07:54:31;;;;;;;8.80;5.80;;;;;;;16.36;75.03;99804.77;109348;1274;22452;-64
2022/05/31 08:00:27;;;;;;;9.40;7.50;;;;;;;16.44;75.47;99814.11;109407;1273;22542;-64
2022/05/31 08:02:54;;;;;;;7.40;6.50;;;;;;;16.44;75.83;99824.83;109281;1273;139807;-64
2022/05/31 08:05:21;;;;;;;8.00;7.00;;;;;;;16.41;75.99;99826.89;109044;1274;22633;-63
2022/05/31 08:07:49;;;;;;;12.80;7.10;;;;;;;16.36;76.21;99823.36;105022;1274;22546;-63
2022/05/31 08:10:17;;;;;;;9.60;6.70;;;;;;;16.30;76.29;99826.55;104855;1274;139162;-63
2022/05/31 08:12:44;;;;;;;10.50;6.70;;;;;;;16.25;76.22;99825.93;104909;1274;25442;-64
2022/05/31 08:15:11;;;;;;;7.80;6.60;;;;;;;16.20;75.72;99834.48;104915;1274;138413;-63
2022/05/31 08:17:38;;;;;;;13.90;6.20;;;;;;;16.15;75.09;99834.91;105085;1274;25359;-62
2022/05/31 08:20:06;;;;;;;6.50;5.80;;;;;;;16.10;74.58;99832.27;105209;1274;24308;-63
2022/05/31 08:22:34;;;;;;;9.80;5.90;;;;;;;16.08;74.50;99831.84;109330;1274;22478;-64
2022/05/31 08:25:02;;;;;;;7.30;4.50;;;;;;;16.06;74.64;99835.09;109391;1274;23959;-64
2022/05/31 08:27:28;;;;;;;9.20;5.40;;;;;;;16.02;74.49;99844.42;109502;1273;22456;-64
2022/05/31 08:29:55;;;;;;;8.40;5.80;;;;;;;15.99;74.53;99859.02;109469;1274;22525;-64
2022/05/31 08:32:24;;;;;;;10.50;5.40;;;;;;;15.94;74.37;99868.32;109449;1274;22440;-64
2022/05/31 08:34:51;;;;;;;6.90;5.30;;;;;;;15.87;74.30;99883.26;109433;1273;22492;-64
2022/05/31 08:37:17;;;;;;;7.20;5.20;;;;;;;15.79;74.54;99885.55;105691;1274;24277;-63
2022/05/31 08:39:44;;;;;;;8.50;5.90;;;;;;;15.73;74.81;99889.55;104365;1277;138028;-63
2022/05/31 08:42:14;;;;;;;8.70;5.20;;;;;;;15.67;75.35;99889.30;104966;1274;22557;-63
2022/05/31 08:44:57;;;;;;;6.50;5.00;;;;;;;15.62;76.00;99885.97;104832;1274;138978;-63
2022/05/31 08:47:40;;;;;;;6.60;5.00;;;;;;;15.55;76.45;99885.62;104968;1276;24330;-63
2022/05/31 08:53:09;;;;;;;6.50;4.80;;;;;;;15.39;76.89;99873.21;104959;1274;22560;-62
2022/05/31 08:58:34;;;;;;;7.20;4.60;;;;;;;15.18;76.91;99871.30;109210;1274;22453;-63
2022/05/31 09:01:01;;;;;;;4.50;4.10;;;;;;;15.10;77.31;99868.75;109285;1273;24357;-64
2022/05/31 09:03:29;;;;;;;7.60;4.40;;;;;;;15.04;77.81;99866.67;109028;1274;138647;-64
2022/05/31 09:06:05;;;;;;;5.80;4.10;;;;;;;14.97;78.21;99874.56;109222;1273;22530;-63
2022/05/31 09:08:59;;;;;;;7.50;4.40;;;;;;;14.88;78.88;99886.74;109237;1274;139620;-64
2022/05/31 09:11:47;;;;;;;9.10;4.30;;;;;;;14.77;79.70;99884.79;109438;1273;23112;-64
2022/05/31 09:14:17;;;;;;;7.10;4.80;;;;;;;14.55;80.36;99878.56;109144;1274;138057;-68
2022/05/31 09:17:16;;;;;;;6.30;4.30;;;;;;;14.35;80.72;99878.16;109143;1276;22505;-64
2022/05/31 09:19:51;;;;;;;5.20;3.60;;;;;;;14.15;81.39;99878.36;109262;1274;138281;-64
2022/05/31 09:22:24;;;;;;;6.10;3.00;;;;;;;14.01;81.25;99884.42;109386;1273;22445;-63
2022/05/31 09:24:50;;;;;;;3.80;2.40;;;;;;;13.90;81.27;99893.50;109247;1274;22534;-64
2022/05/31 09:27:42;;;;;;;4.40;2.50;;;;;;;13.83;81.38;99896.63;109201;1273;138336;-63
2022/05/31 09:30:11;;;;;;;3.10;2.50;;;;;;;13.78;81.24;99878.80;109065;1276;22498;-63
2022/05/31 09:32:57;;;;;;;3.40;2.70;;;;;;;13.75;81.11;99876.98;109262;1274;138207;-63
2022/05/31 09:35:58;;;;;;;3.90;2.10;;;;;;;13.69;81.08;99881.95;108782;1274;22598;-62
2022/05/31 09:38:43;;;;;;;5.50;2.50;;;;;;;13.63;81.26;99889.91;104744;1276;138097;-62
2022/05/31 09:41:32;;;;;;;2.80;2.30;;;;;;;13.60;81.86;99893.85;104784;1276;24425;-62
2022/05/31 09:44:13;;;;;;;5.70;2.80;;;;;;;13.59;82.24;99895.06;104667;1276;138760;-64
2022/05/31 09:46:46;;;;;;;3.70;2.40;;;;;;;13.57;82.28;99897.66;104939;1274;24047;-63
2022/05/31 09:49:26;;;;;;;3.10;2.50;;;;;;;13.53;82.23;99899.48;104935;1274;24424;-64
2022/05/31 09:51:53;;;;;;;5.90;2.90;;;;;;;13.49;82.23;99898.74;104952;1274;23217;-65
2022/05/31 09:57:21;;;;;;;3.40;2.30;;;;;;;13.45;83.00;99896.70;104609;1276;138159;-65
2022/05/31 10:00:13;;;;;;;4.50;2.70;;;;;;;13.44;83.04;99900.36;104976;1273;22591;-64
2022/05/31 10:03:13;;;;;;;5.80;3.70;;;;;;;13.44;83.21;99896.31;109234;1274;139563;-65
2022/05/31 10:05:42;;;;;;;5.20;3.20;;;;;;;13.42;83.41;99891.22;109349;1273;23769;-65
2022/05/31 10:08:15;;;;;;;5.20;3.40;;;;;;;13.40;83.51;99893.41;109236;1273;139879;-65
2022/05/31 10:10:48;;;;;;;4.60;3.60;;;;;;;13.38;84.09;99895.54;108916;1275;23373;-65
2022/05/31 10:13:36;;;;;;;5.30;3.90;;;;;;;13.41;84.26;99906.17;109191;1274;23888;-65
2022/05/31 10:16:20;;;;;;;5.60;3.90;;;;;;;13.43;84.46;99919.19;107719;1274;22588;-65
2022/05/31 10:18:55;;;;;;;6.60;3.70;;;;;;;13.45;84.77;99912.08;104831;1275;24263;-64
2022/05/31 10:21:32;;;;;;;7.50;4.40;;;;;;;13.50;85.33;99912.61;104886;1274;139075;-63
2022/05/31 10:24:19;;;;;;;9.40;4.80;;;;;;;13.55;85.81;99903.48;104861;1274;25393;-64
2022/05/31 10:27:05;;;;;;;5.00;4.20;;;;;;;13.61;86.43;99892.43;109232;1274;138804;-64
2022/05/31 10:30:07;;;;;;;7.80;4.30;;;;;;;13.66;86.84;99882.39;109034;1275;23694;-63
2022/05/31 10:33:03;;;;;;;5.30;4.70;;;;;;;13.71;87.28;99875.33;109160;1274;139906;-64
2022/05/31 10:35:33;;;;;;;;;;;;;;;13.78;87.80;99869.27;109295;1274;22499;-63
2022/05/31 10:38:01;;;;;;;4.90;4.40;;;;;;;13.84;87.65;99873.61;109203;1274;125885;-64
2022/05/31 10:40:33;;;;;;;6.60;4.00;;;;;;;13.88;87.57;99871.52;109310;1274;23226;-64
2022/05/31 10:43:06;;;;;;;7.60;4.20;;;;;;;13.96;87.90;99874.06;109293;1274;23094;-63
2022/05/31 10:45:33;;;;;;;5.20;3.80;;;;;;;14.06;87.72;99875.29;109194;1273;139181;-63
2022/05/31 10:48:04;;;;;;;4.70;4.30;;;;;;;14.14;87.15;99879.34;109229;1273;22468;-62
2022/05/31 10:50:44;;;;;;;5.40;4.10;;;;;;;14.22;86.62;99886.37;109166;1273;138229;-62
2022/05/31 10:53:25;;;;;;;4.80;4.10;;;;;;;14.28;85.92;99888.35;109045;1276;23750;-63
2022/05/31 10:55:56;;;;;;;7.50;4.60;;;;;;;14.32;85.21;99898.00;109224;1273;138897;-64
2022/05/31 10:58:47;;;;;;;5.20;3.90;;;;;;;14.37;85.24;99904.09;109043;1274;22499;-63
2022/05/31 11:01:33;;;;;;;8.20;4.50;;;;;;;14.44;85.05;99897.65;109203;1273;22441;-64
2022/05/31 11:04:00;;;;;;;9.30;4.90;;;;;;;14.52;85.10;99893.70;109324;1274;22526;-64
2022/05/31 11:07:09;;;;;;;4.40;4.00;;;;;;;14.60;84.62;99892.77;109303;1273;22451;-63
2022/05/31 11:13:05;;;;;;;3.80;3.40;;;;;;;14.70;83.09;99898.25;108837;1280;22547;-64
2022/05/31 11:15:53;;;;;;;4.80;3.90;;;;;;;14.75;82.78;99897.73;107995;1280;139820;-64
2022/05/31 11:18:31;;;;;;;6.70;3.70;;;;;;;14.80;82.76;99896.15;108829;1280;22540;-64
2022/05/31 11:21:01;;;;;;;4.10;3.40;;;;;;;14.86;82.79;99884.73;108621;1280;139091;-64
2022/05/31 11:24:06;;;;;;;4.00;3.60;;;;;;;14.95;82.76;99876.64;108885;1279;22567;-64
2022/05/31 11:26:48;;;;;;;6.00;3.60;;;;;;;15.08;83.38;99872.59;108570;1280;139086;-64
2022/05/31 11:29:51;;;;;;;5.90;4.20;;;;;;;15.21;82.75;99873.00;108582;1280;22470;-64
2022/05/31 11:32:28;;;;;;;6.00;4.20;;;;;;;15.32;82.52;99872.62;108712;1280;139185;-64
2022/05/31 11:35:10;;;;;;;4.60;3.70;;;;;;;15.40;82.32;99878.38;108770;1280;22470;-64
2022/05/31 11:37:43;;;;;;;7.20;4.00;;;;;;;15.50;81.61;99876.23;108678;1280;138129;-64
2022/05/31 11:40:35;;;;;;;3.50;2.90;;;;;;;15.58;80.99;99880.89;108693;1281;22433;-64
2022/05/31 11:43:46;;;;;;;4.30;3.90;;;;;;;15.65;80.22;99877.02;108829;1275;22515;-64
2022/05/31 11:46:46;;;;;;;4.40;3.80;;;;;;;15.73;79.89;99878.06;108717;1280;22510;-64
2022/05/31 11:49:40;;;;;;;6.20;3.60;;;;;;;15.81;79.94;99884.67;108061;1286;22453;-64
2022/05/31 11:52:19;;;;;;;4.30;3.20;;;;;;;15.89;79.58;99887.48;107801;1286;22438;-64
2022/05/31 11:55:25;;;;;;;2.70;2.50;;;;;;;15.94;78.30;99890.80;108007;1286;22460;-64
2022/05/31 11:57:47;;;;;;;5.90;3.40;;;;;;;15.93;77.22;99895.27;107947;1287;139086;-64
2022/05/31 12:00:15;;;;;;;5.90;3.40;;;;;;;15.92;77.07;99899.39;107992;1286;23387;-64
2022/05/31 12:02:52;;;;;;;3.80;3.00;;;;;;;15.93;76.86;99902.73;107695;1286;339389;-64
2022/05/31 12:06:15;;;;;;;5.10;2.70;;;;;;;15.94;76.09;99905.48;101708;1308;545074;-64
2022/05/31 12:08:47;;;;;;;4.80;3.00;;;;;;;15.92;75.93;99911.36;103750;1284;139468;-64
2022/05/31 12:11:24;;;;;;;5.60;3.30;;;;;;;15.96;76.05;99909.05;103658;1287;22573;-63
2022/05/31 12:13:51;;;;;;;;;;;;;;;16.03;76.20;99909.37;103617;1287;137618;-66
2022/05/31 12:16:18;;;;;;;8.80;3.60;;;;;;;16.08;75.93;99912.10;103914;1287;25097;-66
2022/05/31 12:18:47;;;;;;;6.60;3.60;;;;;;;16.12;75.73;99909.77;107619;1286;335081;-65